Flugplatz Bartholomä-Amalienhof

Für EDPU sind keine METAR/TAF Berichte vorhanden.
Es werden die Flugwettermeldungen vom Flugplatz Adolf Würth in 44 km Entfernung angezeigt.

Bericht für EDTY

vom 25.01. um 23:20 UTC

Wind 2 kt aus 120°

Sichtweite 500 m

gering bewölkt in 100 ft

aufgebrochene Bewölkung in 500 ft

aufgebrochene Bewölkung in 700 ft

Temperatur 0.0°C

Taupunkt -1.0°C

Luftfeuchtigkeit 93%

Luftdruck 1020 hPa

EDTY 252320Z AUTO 12002KT 0450 R28/0550N // FEW001/// BKN005/// BKN007/// M00/M01 Q1020

Prognose für EDTY

vom 25.01. um 00:00 UTC

Am 25.01. zwischen 00:00 UTC und 00:00 UTC

variable Windrichtung mit 2 kt

Sichtweite 6000 m

keine Wolken


Am 25.01. zwischen 00:00 und 00:00 UTC übergehend zu

variable Windrichtung mit 2 kt

Sichtweite 4000 m

feuchter Dunst

keine Wolken


Am 25.01. zwischen 00:00 und 00:00 UTC übergehend zu

variable Windrichtung mit 2 kt

Sichtweite 600 m

Code: FZFG

TAF EDTY 251700Z 2518/2603 VRB02KT 6000 NSC BECMG 2518/2520 4000 BR BECMG 2522/2524 0600 FZFG VV002
Impressum